createdAt,value
2023-01-11T00:00:45.390Z,1.40
2023-01-11T00:03:31.921Z,1.33
2023-01-11T00:06:18.285Z,1.55
2023-01-11T00:09:04.177Z,2.33
2023-01-11T00:11:55.762Z,1.75
2023-01-11T00:14:45.867Z,2.45
2023-01-11T00:17:32.097Z,3.17
2023-01-11T00:20:19.347Z,2.20
2023-01-11T00:23:05.639Z,4.25
2023-01-11T00:25:51.812Z,2.50
2023-01-11T00:28:37.664Z,2.10
2023-01-11T00:31:23.797Z,2.15
2023-01-11T00:34:10.046Z,1.60
2023-01-11T00:36:56.040Z,1.90
2023-01-11T00:39:44.470Z,2.38
2023-01-11T00:42:50.314Z,3.05
2023-01-11T00:45:54.795Z,3.17
2023-01-11T00:48:40.617Z,2.00
2023-01-11T00:51:26.623Z,2.17
2023-01-11T00:54:13.047Z,2.95
2023-01-11T00:57:00.939Z,3.88
2023-01-11T00:59:47.364Z,3.40
2023-01-11T01:02:33.902Z,4.07
2023-01-11T01:05:20.119Z,2.90
2023-01-11T01:08:06.512Z,1.85
2023-01-11T01:10:52.612Z,2.13
2023-01-11T01:13:57.183Z,1.95
2023-01-11T01:19:31.177Z,2.30
2023-01-11T01:22:17.291Z,2.33
2023-01-11T01:25:03.489Z,3.17
2023-01-11T01:27:49.810Z,2.08
2023-01-11T01:30:35.773Z,2.20
2023-01-11T01:33:22.229Z,2.30
2023-01-11T01:36:08.728Z,2.58
2023-01-11T01:38:55.002Z,2.40
2023-01-11T01:41:41.554Z,2.42
2023-01-11T01:44:57.831Z,2.22
2023-01-11T01:47:47.483Z,2.50
2023-01-11T01:50:38.532Z,3.70
2023-01-11T01:53:41.458Z,2.60
2023-01-11T01:56:42.822Z,2.72
2023-01-11T01:59:31.196Z,2.40
2023-01-11T02:02:17.399Z,2.40
2023-01-11T02:05:04.529Z,2.65
2023-01-11T02:07:51.522Z,2.42
2023-01-11T02:10:38.320Z,4.68
2023-01-11T02:13:24.670Z,2.65
2023-01-11T02:16:10.593Z,3.28
2023-01-11T02:19:01.340Z,2.70
2023-01-11T02:22:00.908Z,2.50
2023-01-11T02:24:47.123Z,3.65
2023-01-11T02:28:07.550Z,2.63
2023-01-11T02:31:35.539Z,2.85
2023-01-11T02:34:43.876Z,3.35
2023-01-11T02:37:39.362Z,2.30
2023-01-11T02:41:08.965Z,3.10
2023-01-11T02:44:21.545Z,3.20
2023-01-11T02:47:18.266Z,3.30
2023-01-11T02:50:35.242Z,2.60
2023-01-11T02:53:53.672Z,2.63
2023-01-11T02:56:47.842Z,2.45
2023-01-11T02:59:39.006Z,3.03
2023-01-11T03:02:27.107Z,2.70
2023-01-11T03:05:16.652Z,3.10
2023-01-11T03:08:23.134Z,3.22
2023-01-11T03:11:50.895Z,2.65
2023-01-11T03:15:20.670Z,3.33
2023-01-11T03:18:31.101Z,2.67
2023-01-11T03:21:41.146Z,2.80
2023-01-11T03:24:45.758Z,3.92
2023-01-11T03:27:55.705Z,3.33
2023-01-11T03:30:59.815Z,3.22
2023-01-11T03:34:07.764Z,2.95
2023-01-11T03:37:11.475Z,4.25
2023-01-11T03:40:18.795Z,3.03
2023-01-11T03:43:13.746Z,3.55
2023-01-11T03:46:31.968Z,3.58
2023-01-11T03:53:07.344Z,4.00
2023-01-11T03:56:34.661Z,2.38
2023-01-11T03:59:26.057Z,4.60
2023-01-11T04:02:49.194Z,2.30
2023-01-11T04:05:37.199Z,3.80
2023-01-11T04:08:27.054Z,4.32
2023-01-11T04:11:23.635Z,2.75
2023-01-11T04:14:10.346Z,2.72
2023-01-11T04:16:56.693Z,4.20
2023-01-11T04:20:15.979Z,4.72
2023-01-11T04:23:06.796Z,3.83
2023-01-11T04:26:03.985Z,3.75
2023-01-11T04:29:02.222Z,3.35
2023-01-11T04:32:38.395Z,3.03
2023-01-11T04:36:20.834Z,3.40
2023-01-11T04:39:24.046Z,4.15
2023-01-11T04:43:55.023Z,3.08
2023-01-11T04:50:05.002Z,4.80
2023-01-11T04:53:36.060Z,3.00
2023-01-11T04:56:34.424Z,3.60
2023-01-11T04:59:27.891Z,5.15
2023-01-11T05:02:51.151Z,3.65
2023-01-11T05:06:18.273Z,3.20
2023-01-11T05:13:08.405Z,4.47
2023-01-11T05:16:43.253Z,3.33
2023-01-11T05:19:31.019Z,4.57
2023-01-11T05:22:20.628Z,2.80
2023-01-11T05:25:36.261Z,3.85
2023-01-11T05:28:22.781Z,4.80
2023-01-11T05:31:09.291Z,4.15
2023-01-11T05:41:29.177Z,4.72
2023-01-11T05:44:34.524Z,3.92
2023-01-11T05:47:52.794Z,3.15
2023-01-11T05:51:36.733Z,3.70
2023-01-11T05:54:26.396Z,3.90
2023-01-11T05:57:44.926Z,3.30
2023-01-11T06:07:29.995Z,3.45
2023-01-11T06:10:17.471Z,3.20
2023-01-11T06:13:25.694Z,3.50
2023-01-11T06:16:20.242Z,3.92
2023-01-11T06:19:07.448Z,3.63
2023-01-11T06:22:07.578Z,5.13
2023-01-11T06:25:02.845Z,6.32
2023-01-11T06:27:49.465Z,4.90
2023-01-11T06:30:36.074Z,3.85
2023-01-11T06:33:24.811Z,4.50
2023-01-11T06:36:12.935Z,4.20
2023-01-11T06:39:08.478Z,4.95
2023-01-11T06:42:05.229Z,5.05
2023-01-11T06:44:51.513Z,4.13
2023-01-11T06:47:37.922Z,3.75
2023-01-11T06:50:25.993Z,3.25
2023-01-11T06:53:13.387Z,4.78
2023-01-11T06:55:59.663Z,5.03
2023-01-11T06:58:49.336Z,3.63
2023-01-11T07:01:35.956Z,2.88
2023-01-11T07:04:23.438Z,3.42
2023-01-11T07:07:10.477Z,3.20
2023-01-11T07:09:56.606Z,3.35
2023-01-11T07:12:43.499Z,2.85
2023-01-11T07:15:38.850Z,3.33
2023-01-11T07:18:25.553Z,2.97
2023-01-11T07:21:22.964Z,3.88
2023-01-11T07:24:12.001Z,3.55
2023-01-11T07:27:02.421Z,3.72
2023-01-11T07:30:01.051Z,3.53
2023-01-11T07:32:47.312Z,3.20
2023-01-11T07:35:33.952Z,3.35
2023-01-11T07:41:40.794Z,3.78
2023-01-11T07:44:30.843Z,3.95
2023-01-11T07:47:16.848Z,5.53
2023-01-11T07:50:03.552Z,3.60
2023-01-11T07:52:51.103Z,4.13
2023-01-11T07:55:39.834Z,4.57
2023-01-11T07:58:26.613Z,3.78
2023-01-11T08:01:13.122Z,4.30
2023-01-11T08:03:59.066Z,3.03
2023-01-11T08:06:45.072Z,3.63
2023-01-11T08:09:31.278Z,2.80
2023-01-11T08:12:50.658Z,3.22
2023-01-11T08:15:37.625Z,4.88
2023-01-11T08:18:24.044Z,3.47
2023-01-11T08:21:10.499Z,5.03
2023-01-11T08:23:58.924Z,2.55
2023-01-11T08:26:45.481Z,2.83
2023-01-11T08:29:33.604Z,3.10
2023-01-11T08:32:19.616Z,2.75
2023-01-11T08:35:06.477Z,4.03
2023-01-11T08:37:53.042Z,3.30
2023-01-11T08:40:40.614Z,3.03
2023-01-11T08:43:26.692Z,3.22
2023-01-11T08:46:13.890Z,2.38
2023-01-11T08:49:02.824Z,3.03
2023-01-11T08:51:59.190Z,2.88
2023-01-11T08:54:45.298Z,2.65
2023-01-11T08:57:43.111Z,3.22
2023-01-11T09:00:29.341Z,3.33
2023-01-11T09:03:21.870Z,4.10
2023-01-11T09:06:10.876Z,2.53
2023-01-11T09:08:57.376Z,3.95
2023-01-11T09:11:57.234Z,3.53
2023-01-11T09:14:44.633Z,4.25
2023-01-11T09:17:30.509Z,2.63
2023-01-11T09:20:17.335Z,4.35
2023-01-11T09:23:07.364Z,4.45
2023-01-11T09:25:56.164Z,3.75
2023-01-11T09:28:42.604Z,3.13
2023-01-11T09:31:29.017Z,3.28
2023-01-11T09:34:16.330Z,4.45
2023-01-11T09:37:06.871Z,3.67
2023-01-11T09:39:53.319Z,2.80
2023-01-11T09:42:43.540Z,3.90
2023-01-11T09:45:31.622Z,2.80
2023-01-11T09:48:35.295Z,4.03
2023-01-11T09:51:26.895Z,2.92
2023-01-11T09:54:43.380Z,3.70
2023-01-11T09:58:16.072Z,3.15
2023-01-11T10:01:11.020Z,4.10
2023-01-11T10:04:12.033Z,3.65
2023-01-11T10:07:10.194Z,3.70
2023-01-11T10:18:39.057Z,3.33
2023-01-11T10:20:03.413Z,3.20
2023-01-11T10:22:52.654Z,3.15
2023-01-11T10:25:48.306Z,3.22
2023-01-11T10:28:45.953Z,3.47
2023-01-11T10:31:49.464Z,3.60
2023-01-11T10:35:02.191Z,2.65
2023-01-11T10:38:22.997Z,2.83
2023-01-11T10:41:43.276Z,3.60
2023-01-11T10:44:42.263Z,3.72
2023-01-11T10:48:01.506Z,3.80
2023-01-11T10:51:29.475Z,2.97
2023-01-11T10:54:31.754Z,2.20
2023-01-11T10:57:29.315Z,3.30
2023-01-11T11:00:21.604Z,3.50
2023-01-11T11:03:35.112Z,3.25
2023-01-11T11:06:27.745Z,4.65
2023-01-11T11:09:26.030Z,2.72
2023-01-11T11:12:21.447Z,2.55
2023-01-11T11:15:33.933Z,2.80
2023-01-11T11:18:20.134Z,3.03
2023-01-11T11:21:23.831Z,3.70
2023-01-11T11:24:51.732Z,2.50
2023-01-11T11:27:42.068Z,2.38
2023-01-11T11:30:32.222Z,2.45
2023-01-11T11:33:30.095Z,2.25
2023-01-11T11:36:17.586Z,3.30
2023-01-11T11:39:23.030Z,2.90
2023-01-11T11:42:16.707Z,2.47
2023-01-11T11:45:09.171Z,2.88
2023-01-11T11:48:10.807Z,2.60
2023-01-11T11:50:59.270Z,2.35
2023-01-11T11:53:53.383Z,2.15
2023-01-11T11:56:41.319Z,2.35
2023-01-11T11:59:30.419Z,2.85
2023-01-11T12:02:36.891Z,2.47
2023-01-11T12:05:23.508Z,2.45
2023-01-11T12:08:14.902Z,3.08
2023-01-11T12:11:07.946Z,2.00
2023-01-11T12:14:04.629Z,2.05
2023-01-11T12:16:50.941Z,1.90
2023-01-11T12:19:43.026Z,2.08
2023-01-11T12:22:37.444Z,2.30
2023-01-11T12:25:27.536Z,2.35
2023-01-11T12:28:22.401Z,2.65
2023-01-11T12:31:15.692Z,3.20
2023-01-11T12:34:34.610Z,4.60
2023-01-11T12:37:35.868Z,2.58
2023-01-11T12:40:44.085Z,2.42
2023-01-11T12:43:38.852Z,2.83
2023-01-11T12:47:17.869Z,2.58
2023-01-11T12:50:19.627Z,2.72
2023-01-11T12:53:20.933Z,2.33
2023-01-11T12:56:34.398Z,2.20
2023-01-11T12:59:44.932Z,2.90
2023-01-11T13:02:43.174Z,3.17
2023-01-11T13:06:06.962Z,2.30
2023-01-11T13:09:12.508Z,2.50
2023-01-11T13:12:10.596Z,2.67
2023-01-11T13:15:17.184Z,3.13
2023-01-11T13:18:10.786Z,2.45
2023-01-11T13:21:02.207Z,2.53
2023-01-11T13:23:59.408Z,2.78
2023-01-11T13:26:50.562Z,3.78
2023-01-11T13:29:45.990Z,2.65
2023-01-11T13:32:37.836Z,4.10
2023-01-11T13:35:46.773Z,2.70
2023-01-11T13:38:51.207Z,3.53
2023-01-11T13:41:56.559Z,2.55
2023-01-11T13:44:49.408Z,3.08
2023-01-11T13:47:41.180Z,3.75
2023-01-11T13:50:36.512Z,2.53
2023-01-11T13:53:43.719Z,3.53
2023-01-11T13:56:38.933Z,2.70
2023-01-11T13:59:32.993Z,2.00
2023-01-11T14:02:42.255Z,1.38
2023-01-11T14:05:37.221Z,1.70
2023-01-11T14:08:43.176Z,1.48
2023-01-11T14:11:48.258Z,1.42
2023-01-11T14:14:46.698Z,0.90
2023-01-11T14:17:44.899Z,0.90
2023-01-11T14:20:43.435Z,0.90
2023-01-11T14:23:56.684Z,1.00
2023-01-11T14:26:55.035Z,1.00
2023-01-11T14:30:06.146Z,0.95
2023-01-11T14:33:01.430Z,1.83
2023-01-11T14:35:56.778Z,2.58
2023-01-11T14:39:00.624Z,1.60
2023-01-11T14:42:16.261Z,2.28
2023-01-11T14:45:31.932Z,1.50
2023-01-11T14:48:26.465Z,1.50
2023-01-11T14:51:48.463Z,2.65
2023-01-11T14:54:44.736Z,1.98
2023-01-11T14:57:43.347Z,2.22
2023-01-11T15:00:29.082Z,2.30
2023-01-11T15:03:19.549Z,2.10
2023-01-11T15:06:16.541Z,2.63
2023-01-11T15:09:02.560Z,2.40
2023-01-11T15:11:48.717Z,2.13
2023-01-11T15:14:37.318Z,2.97
2023-01-11T15:17:45.213Z,2.90
2023-01-11T15:20:33.693Z,2.75
2023-01-11T15:23:21.312Z,5.00
2023-01-11T15:26:09.543Z,3.10
2023-01-11T15:28:57.796Z,3.22
2023-01-11T15:32:03.967Z,4.47
2023-01-11T15:34:50.414Z,4.90
2023-01-11T15:38:18.150Z,4.82
2023-01-11T15:41:30.860Z,5.88
2023-01-11T15:45:00.492Z,5.25
2023-01-11T15:48:14.450Z,4.50
2023-01-11T15:51:33.988Z,4.30
2023-01-11T15:54:39.171Z,4.90
2023-01-11T15:57:57.558Z,4.25
2023-01-11T16:01:01.143Z,4.15
2023-01-11T16:04:05.322Z,5.37
2023-01-11T16:07:27.040Z,7.05
2023-01-11T16:10:13.363Z,6.38
2023-01-11T16:13:35.622Z,2.95
2023-01-11T16:16:39.251Z,2.00
2023-01-11T16:19:36.607Z,2.47
2023-01-11T16:22:27.825Z,2.38
2023-01-11T16:25:14.674Z,3.67
2023-01-11T16:28:08.943Z,2.45
2023-01-11T16:31:03.665Z,3.08
2023-01-11T16:33:50.105Z,2.88
2023-01-11T16:36:40.872Z,4.60
2023-01-11T16:39:29.828Z,3.13
2023-01-11T16:42:15.841Z,2.90
2023-01-11T16:45:07.040Z,2.70
2023-01-11T16:48:12.580Z,3.00
2023-01-11T16:51:11.594Z,2.20
2023-01-11T16:53:59.215Z,3.03
2023-01-11T16:56:50.117Z,1.50
2023-01-11T16:59:36.575Z,1.75
2023-01-11T17:02:40.154Z,2.25
2023-01-11T17:05:26.640Z,1.50
2023-01-11T17:08:32.465Z,1.70
2023-01-11T17:11:39.422Z,1.40
2023-01-11T17:14:51.136Z,1.73
2023-01-11T17:17:47.209Z,1.65
2023-01-11T17:20:36.984Z,1.70
2023-01-11T17:23:24.188Z,2.38
2023-01-11T17:26:39.301Z,1.65
2023-01-11T17:29:30.272Z,1.60
2023-01-11T17:32:39.130Z,3.05
2023-01-11T17:35:28.513Z,3.05
2023-01-11T17:38:16.685Z,3.05
2023-01-11T17:41:24.708Z,4.47
2023-01-11T17:44:47.714Z,2.83
2023-01-11T17:47:35.021Z,3.20
2023-01-11T17:50:28.989Z,3.17
2023-01-11T17:53:18.817Z,3.72
2023-01-11T17:56:07.838Z,3.20
2023-01-11T17:59:11.881Z,2.88
2023-01-11T18:02:04.876Z,3.13
2023-01-11T18:04:59.671Z,2.90
2023-01-11T18:07:52.887Z,3.08
2023-01-11T18:10:42.820Z,2.55
2023-01-11T18:13:36.638Z,1.67
2023-01-11T18:16:24.358Z,1.55
2023-01-11T18:19:44.444Z,1.70
2023-01-11T18:22:33.208Z,1.95
2023-01-11T18:25:22.435Z,2.05
2023-01-11T18:28:22.059Z,2.35
2023-01-11T18:31:08.133Z,1.58
2023-01-11T18:33:54.502Z,1.50
2023-01-11T18:36:40.559Z,1.90
2023-01-11T18:39:26.620Z,1.98
2023-01-11T18:42:17.434Z,2.38
2023-01-11T18:45:04.124Z,2.75
2023-01-11T18:47:50.362Z,2.60
2023-01-11T18:50:37.887Z,2.92
2023-01-11T18:53:25.144Z,3.03
2023-01-11T18:56:11.439Z,2.95
2023-01-11T18:58:58.035Z,3.28
2023-01-11T19:01:58.650Z,3.70
2023-01-11T19:04:51.333Z,4.00
2023-01-11T19:07:37.357Z,3.83
2023-01-11T19:10:24.092Z,4.72
2023-01-11T19:13:10.597Z,3.70
2023-01-11T19:15:56.727Z,3.13
2023-01-11T19:18:42.965Z,3.70
2023-01-11T19:21:29.162Z,4.45
2023-01-11T19:24:15.057Z,5.25
2023-01-11T19:27:01.529Z,3.80
2023-01-11T19:29:47.599Z,4.53
2023-01-11T19:32:33.575Z,4.68
2023-01-11T19:35:20.226Z,5.35
2023-01-11T19:38:06.616Z,3.38
2023-01-11T19:40:52.583Z,3.95
2023-01-11T19:43:44.974Z,4.15
2023-01-11T19:46:32.260Z,6.00
2023-01-11T19:49:18.941Z,3.13
2023-01-11T19:52:11.994Z,4.25
2023-01-11T19:54:58.036Z,3.97
2023-01-11T19:57:44.955Z,4.80
2023-01-11T20:00:32.455Z,4.18
2023-01-11T20:03:18.727Z,4.65
2023-01-11T20:06:08.153Z,3.10
2023-01-11T20:08:55.195Z,3.70
2023-01-11T20:11:41.614Z,3.20
2023-01-11T20:14:27.901Z,4.07
2023-01-11T20:17:19.188Z,3.42
2023-01-11T20:20:06.582Z,3.70
2023-01-11T20:22:52.998Z,3.90
2023-01-11T20:25:41.275Z,3.42
2023-01-11T20:28:28.507Z,4.65
2023-01-11T20:31:14.818Z,4.68
2023-01-11T20:34:11.036Z,4.45
2023-01-11T20:36:57.107Z,4.70
2023-01-11T20:39:43.891Z,4.35
2023-01-11T20:42:31.188Z,4.65
2023-01-11T20:45:16.856Z,4.13
2023-01-11T20:48:02.947Z,4.00
2023-01-11T20:50:49.154Z,4.18
2023-01-11T20:53:35.037Z,4.47
2023-01-11T20:56:21.221Z,4.10
2023-01-11T20:59:09.131Z,5.47
2023-01-11T21:01:55.140Z,4.55
2023-01-11T21:04:41.861Z,5.25
2023-01-11T21:07:28.190Z,4.55
2023-01-11T21:10:14.223Z,5.35
2023-01-11T21:15:54.444Z,6.18
2023-01-11T21:18:43.617Z,5.03
2023-01-11T21:21:32.251Z,4.28
2023-01-11T21:24:20.923Z,6.95
2023-01-11T21:27:08.619Z,6.60
2023-01-11T21:29:54.845Z,6.63
2023-01-11T21:32:40.822Z,6.47
2023-01-11T21:35:27.328Z,7.82
2023-01-11T21:38:15.261Z,6.18
2023-01-11T21:41:11.730Z,5.93
2023-01-11T21:43:57.784Z,6.05
2023-01-11T21:46:44.507Z,7.13
2023-01-11T21:49:31.263Z,7.32
2023-01-11T21:52:17.539Z,5.95
2023-01-11T21:55:03.930Z,5.32
2023-01-11T21:57:50.084Z,6.18
2023-01-11T22:00:36.542Z,8.05
2023-01-11T22:03:29.475Z,5.20
2023-01-11T22:06:16.862Z,5.03
2023-01-11T22:09:08.629Z,6.13
2023-01-11T22:11:55.461Z,7.07
2023-01-11T22:14:43.599Z,6.60
2023-01-11T22:17:29.509Z,5.53
2023-01-11T22:20:17.583Z,4.30
2023-01-11T22:23:03.544Z,3.67
2023-01-11T22:25:49.672Z,3.80
2023-01-11T22:28:54.600Z,4.40
2023-01-11T22:31:51.384Z,5.40
2023-01-11T22:34:39.374Z,4.13
2023-01-11T22:37:25.206Z,3.75
2023-01-11T22:40:11.945Z,7.93
2023-01-11T22:42:58.160Z,3.47
2023-01-11T22:45:44.204Z,5.65
2023-01-11T22:48:32.033Z,3.92
2023-01-11T22:51:20.467Z,4.53
2023-01-11T22:54:06.969Z,5.20
2023-01-11T22:56:53.579Z,4.55
2023-01-11T22:59:39.369Z,5.28
2023-01-11T23:02:25.422Z,4.60
2023-01-11T23:05:12.315Z,4.03
2023-01-11T23:07:58.637Z,4.10
2023-01-11T23:10:44.807Z,4.15
2023-01-11T23:13:49.461Z,3.50
2023-01-11T23:16:36.827Z,3.50
2023-01-11T23:19:22.782Z,3.92
2023-01-11T23:22:09.952Z,3.45
2023-01-11T23:24:56.147Z,3.15
2023-01-11T23:27:41.923Z,4.57
2023-01-11T23:30:29.937Z,4.18
2023-01-11T23:33:15.852Z,4.15
2023-01-11T23:36:04.447Z,5.60
2023-01-11T23:38:51.356Z,5.18
2023-01-11T23:41:55.949Z,6.10
2023-01-11T23:44:46.851Z,5.53
2023-01-11T23:47:32.899Z,7.05
2023-01-11T23:50:18.993Z,7.60
2023-01-11T23:53:05.089Z,6.30
2023-01-11T23:55:55.241Z,6.25
2023-01-11T23:58:41.134Z,8.05
